createdAt,value
2024-01-04T00:03:03.510Z,0.10
2024-01-04T00:08:08.053Z,0.30
2024-01-04T00:13:12.125Z,0.20
2024-01-04T00:18:17.767Z,0.40
2024-01-04T00:23:21.905Z,0.10
2024-01-04T00:28:26.012Z,0.28
2024-01-04T00:33:31.643Z,0.13
2024-01-04T00:38:36.050Z,0.15
2024-01-04T00:43:40.842Z,0.10
2024-01-04T00:48:46.796Z,0.10
2024-01-04T00:53:50.921Z,0.13
2024-01-04T00:58:55.680Z,0.10
2024-01-04T01:04:01.312Z,0.20
2024-01-04T01:09:05.492Z,0.25
2024-01-04T01:14:10.325Z,0.13
2024-01-04T01:19:16.177Z,0.13
2024-01-04T01:24:20.506Z,0.00
2024-01-04T01:29:24.842Z,0.10
2024-01-04T01:34:30.335Z,0.10
2024-01-04T01:39:34.391Z,0.10
2024-01-04T01:44:38.669Z,0.10
2024-01-04T01:49:44.438Z,0.00
2024-01-04T01:54:49.743Z,0.20
2024-01-04T01:59:53.871Z,0.10
2024-01-04T02:05:00.132Z,0.40
2024-01-04T02:10:04.829Z,0.38
2024-01-04T02:15:10.100Z,0.13
2024-01-04T02:20:15.979Z,0.00
2024-01-04T02:25:21.699Z,0.10
2024-01-04T02:30:26.015Z,0.17
2024-01-04T02:35:30.435Z,0.30
2024-01-04T02:40:37.825Z,0.10
2024-01-04T02:45:42.099Z,0.22
2024-01-04T02:50:45.956Z,0.40
2024-01-04T02:55:51.596Z,0.20
2024-01-04T03:00:56.609Z,0.30
2024-01-04T03:06:00.970Z,0.30
2024-01-04T03:11:06.506Z,0.25
2024-01-04T03:16:11.519Z,0.30
2024-01-04T03:21:16.449Z,0.20
2024-01-04T03:26:21.877Z,0.52
2024-01-04T03:31:26.291Z,0.10
2024-01-04T03:36:30.854Z,0.30
2024-01-04T03:41:36.312Z,0.43
2024-01-04T03:46:40.543Z,0.10
2024-01-04T03:51:44.576Z,0.38
2024-01-04T03:56:50.151Z,0.10
2024-01-04T04:01:54.365Z,0.25
2024-01-04T04:06:58.408Z,0.00
2024-01-04T04:12:04.055Z,0.22
2024-01-04T04:17:08.161Z,0.20
2024-01-04T04:22:12.264Z,0.20
2024-01-04T04:27:17.683Z,0.32
2024-01-04T04:32:21.938Z,0.13
2024-01-04T04:37:26.346Z,0.20
2024-01-04T04:42:31.785Z,0.22
2024-01-04T04:47:35.926Z,0.22
2024-01-04T04:52:40.066Z,0.00
2024-01-04T04:57:45.601Z,0.30
2024-01-04T05:02:49.906Z,0.25
2024-01-04T05:07:54.417Z,0.45
2024-01-04T05:13:00.594Z,0.30
2024-01-04T05:18:05.137Z,0.22
2024-01-04T05:23:09.416Z,0.15
2024-01-04T05:28:15.567Z,0.10
2024-01-04T05:33:19.856Z,0.30
2024-01-04T05:38:24.113Z,0.20
2024-01-04T05:43:30.724Z,0.40
2024-01-04T05:48:35.740Z,0.00
2024-01-04T05:53:40.034Z,0.10
2024-01-04T05:58:45.547Z,0.30
2024-01-04T06:03:49.816Z,0.10
2024-01-04T06:08:54.070Z,0.20
2024-01-04T06:13:59.590Z,0.20
2024-01-04T06:19:03.887Z,0.10
2024-01-04T06:24:08.512Z,1.00
2024-01-04T06:29:14.545Z,0.03
2024-01-04T06:34:19.013Z,0.10
2024-01-04T06:39:23.218Z,0.10
2024-01-04T06:44:34.331Z,0.30
2024-01-04T06:49:45.514Z,0.30
2024-01-04T06:54:49.750Z,0.22
2024-01-04T06:59:55.486Z,0.30
2024-01-04T07:04:59.573Z,7.28
2024-01-04T07:10:04.181Z,0.63
2024-01-04T07:15:10.857Z,0.50
2024-01-04T07:20:14.980Z,0.55
2024-01-04T07:25:19.189Z,0.68
2024-01-04T07:30:24.765Z,0.50
2024-01-04T07:35:28.927Z,0.20
2024-01-04T07:40:33.128Z,0.10
2024-01-04T07:45:39.199Z,0.30
2024-01-04T07:50:43.330Z,0.20
2024-01-04T07:55:47.720Z,0.30
2024-01-04T08:00:53.267Z,0.40
2024-01-04T08:05:57.387Z,0.35
2024-01-04T08:11:02.494Z,0.20
2024-01-04T08:16:08.986Z,0.13
2024-01-04T08:21:13.315Z,0.35
2024-01-04T08:26:17.468Z,0.40
2024-01-04T08:31:23.614Z,0.40
2024-01-04T08:36:27.831Z,0.30
2024-01-04T08:41:32.045Z,0.73
2024-01-04T08:46:39.435Z,0.40
2024-01-04T08:51:44.122Z,0.40
2024-01-04T08:56:48.505Z,0.20
2024-01-04T09:01:53.746Z,0.73
2024-01-04T09:06:57.801Z,0.88
2024-01-04T09:12:01.901Z,1.38
2024-01-04T09:17:07.432Z,1.45
2024-01-04T09:22:11.622Z,0.43
2024-01-04T09:27:15.764Z,0.35
2024-01-04T09:32:21.672Z,1.17
2024-01-04T09:37:28.544Z,0.65
2024-01-04T09:42:39.195Z,1.00
2024-01-04T09:47:45.532Z,0.52
2024-01-04T09:52:53.276Z,1.35
2024-01-04T09:57:57.978Z,1.00
2024-01-04T10:03:07.380Z,0.40
2024-01-04T10:08:20.713Z,1.02
2024-01-04T10:13:24.725Z,0.60
2024-01-04T10:18:31.946Z,0.38
2024-01-04T10:23:36.060Z,1.27
2024-01-04T10:28:41.162Z,0.30
2024-01-04T10:33:48.090Z,1.10
2024-01-04T10:38:52.366Z,0.40
2024-01-04T10:44:06.491Z,0.30
2024-01-04T10:49:19.225Z,0.65
2024-01-04T10:54:27.125Z,0.20
2024-01-04T10:59:33.098Z,0.55
2024-01-04T11:04:41.179Z,0.30
2024-01-04T11:09:45.813Z,0.30
2024-01-04T11:14:49.927Z,0.20
2024-01-04T11:20:17.675Z,0.50
2024-01-04T11:25:40.152Z,0.50
2024-01-04T11:30:44.983Z,0.88
2024-01-04T11:35:51.413Z,0.63
2024-01-04T11:40:55.823Z,0.10
2024-01-04T11:45:59.902Z,0.82
2024-01-04T11:51:05.719Z,0.60
2024-01-04T11:56:14.182Z,0.40
2024-01-04T12:01:24.378Z,0.50
2024-01-04T12:06:30.446Z,0.55
2024-01-04T12:11:34.861Z,1.30
2024-01-04T12:16:41.763Z,0.63
2024-01-04T12:21:48.044Z,1.95
2024-01-04T12:26:52.447Z,2.30
2024-01-04T12:31:57.800Z,1.92
2024-01-04T12:37:09.501Z,1.42
2024-01-04T12:42:14.772Z,1.70
2024-01-04T12:47:24.348Z,2.60
2024-01-04T12:52:29.753Z,0.57
2024-01-04T12:57:34.542Z,0.70
2024-01-04T13:02:38.626Z,0.28
2024-01-04T13:07:44.050Z,0.50
2024-01-04T13:12:48.080Z,0.40
2024-01-04T13:17:52.333Z,0.70
2024-01-04T13:22:57.590Z,0.57
2024-01-04T13:28:02.824Z,0.57
2024-01-04T13:33:07.339Z,0.28
2024-01-04T13:38:13.190Z,0.10
2024-01-04T13:43:17.082Z,0.68
2024-01-04T13:48:21.590Z,1.70
2024-01-04T13:53:27.599Z,1.52
2024-01-04T13:58:32.867Z,1.17
2024-01-04T14:03:37.132Z,0.77
2024-01-04T14:08:42.957Z,2.05
2024-01-04T14:13:47.230Z,1.00
2024-01-04T14:18:51.957Z,0.98
2024-01-04T14:23:57.651Z,0.55
2024-01-04T14:29:02.021Z,0.70
2024-01-04T14:34:06.079Z,0.60
2024-01-04T14:39:13.004Z,0.50
2024-01-04T14:44:17.072Z,0.73
2024-01-04T14:49:24.221Z,0.50
2024-01-04T14:54:31.610Z,0.20
2024-01-04T14:59:35.907Z,0.50
2024-01-04T15:04:40.690Z,0.30
2024-01-04T15:09:47.641Z,0.40
2024-01-04T15:14:51.798Z,0.28
2024-01-04T15:19:56.015Z,0.50
2024-01-04T15:25:01.768Z,1.05
2024-01-04T15:30:06.454Z,0.30
2024-01-04T15:35:11.207Z,0.50
2024-01-04T15:40:16.650Z,0.82
2024-01-04T15:45:21.594Z,0.70
2024-01-04T15:50:26.055Z,0.57
2024-01-04T15:55:31.608Z,0.52
2024-01-04T16:00:35.685Z,0.30
2024-01-04T16:05:39.718Z,0.63
2024-01-04T16:10:45.132Z,0.20
2024-01-04T16:15:49.149Z,0.60
2024-01-04T16:20:53.710Z,0.88
2024-01-04T16:25:59.604Z,0.50
2024-01-04T16:31:03.862Z,0.70
2024-01-04T16:36:10.710Z,0.32
2024-01-04T16:41:16.301Z,0.43
2024-01-04T16:46:22.753Z,0.45
2024-01-04T16:51:27.017Z,0.80
2024-01-04T16:56:32.553Z,1.50
2024-01-04T17:01:37.004Z,1.02
2024-01-04T17:07:01.180Z,1.98
2024-01-04T17:12:07.463Z,2.10
2024-01-04T17:17:11.779Z,0.85
2024-01-04T17:22:16.482Z,0.70
2024-01-04T17:27:21.974Z,1.10
2024-01-04T17:32:26.237Z,1.58
2024-01-04T17:37:33.411Z,1.25
2024-01-04T17:42:39.079Z,1.20
2024-01-04T17:47:46.305Z,0.45
2024-01-04T17:52:50.918Z,2.00
2024-01-04T17:57:57.138Z,0.73
2024-01-04T18:03:01.556Z,1.60
2024-01-04T18:08:10.569Z,1.58
2024-01-04T18:13:16.563Z,1.20
2024-01-04T18:18:20.838Z,1.35
2024-01-04T18:23:25.552Z,2.25
2024-01-04T18:28:31.047Z,3.58
2024-01-04T18:33:37.019Z,3.38
2024-01-04T18:38:47.483Z,2.38
2024-01-04T18:43:56.692Z,1.83
2024-01-04T18:49:01.266Z,2.60
2024-01-04T18:54:05.728Z,2.45
2024-01-04T18:59:12.062Z,0.93
2024-01-04T19:04:16.291Z,1.67
2024-01-04T19:09:21.131Z,1.08
2024-01-04T19:14:27.017Z,1.50
2024-01-04T19:19:31.244Z,1.38
2024-01-04T19:24:35.428Z,0.30
2024-01-04T19:29:41.439Z,0.40
2024-01-04T19:34:45.716Z,0.57
2024-01-04T19:39:49.875Z,0.30
2024-01-04T19:44:55.571Z,0.35
2024-01-04T19:50:00.475Z,0.47
2024-01-04T19:55:04.696Z,0.60
2024-01-04T20:00:13.277Z,1.08
2024-01-04T20:05:17.742Z,0.28
2024-01-04T20:10:21.781Z,0.40
2024-01-04T20:15:43.370Z,0.15
2024-01-04T20:21:00.404Z,0.60
2024-01-04T20:26:05.606Z,0.52
2024-01-04T20:31:11.144Z,0.55
2024-01-04T20:36:18.187Z,1.30
2024-01-04T20:41:22.662Z,1.60
2024-01-04T20:46:28.670Z,3.10
2024-01-04T20:51:33.035Z,1.17
2024-01-04T20:56:38.976Z,1.30
2024-01-04T21:01:47.239Z,1.33
2024-01-04T21:06:51.771Z,2.00
2024-01-04T21:11:56.006Z,1.10
2024-01-04T21:17:05.691Z,0.70
2024-01-04T21:22:09.731Z,1.27
2024-01-04T21:27:14.229Z,1.20
2024-01-04T21:32:20.435Z,1.58
2024-01-04T21:37:24.496Z,1.38
2024-01-04T21:42:36.304Z,1.63
2024-01-04T21:47:49.448Z,2.17
2024-01-04T21:52:54.132Z,3.47
2024-01-04T21:57:57.949Z,2.17
2024-01-04T22:03:23.710Z,2.30
2024-01-04T22:08:30.388Z,6.30
2024-01-04T22:13:34.470Z,3.93
2024-01-04T22:18:40.551Z,5.07
2024-01-04T22:23:45.303Z,4.53
2024-01-04T22:28:49.462Z,3.13
2024-01-04T22:33:55.057Z,2.67
2024-01-04T22:38:59.472Z,2.40
2024-01-04T22:44:03.489Z,2.65
2024-01-04T22:49:09.201Z,6.35
2024-01-04T22:54:14.238Z,1.95
2024-01-04T22:59:18.560Z,2.40
2024-01-04T23:04:24.069Z,2.35
2024-01-04T23:09:30.043Z,1.65
2024-01-04T23:14:34.116Z,1.70
2024-01-04T23:19:40.970Z,1.80
2024-01-04T23:24:45.536Z,1.60
2024-01-04T23:29:49.815Z,3.00
2024-01-04T23:34:55.155Z,1.45
2024-01-04T23:39:59.694Z,2.10
2024-01-04T23:45:04.039Z,1.88
2024-01-04T23:50:16.811Z,1.95
2024-01-04T23:55:22.112Z,1.55
